Latest Weather Observations for Roma

IDQ60801

Issued at 11:04 am EST Wednesday 28 January 2015 (issued every 30 minutes, with the page automatically refreshed every 10 minutes)

About weather observations | Map of weather stations | Latest weather observations for QLD | Other Formats
Station Details ID: 043091 Name: ROMA AIRPORT Lat: -26.55 Lon: 148.77 Height: 307.38 m
Data from the previous 72 hours. | See also: Recent months at Roma
Date/Time
EST
Temp
°C
App
Temp
°C
Dew
Point
Rel
Hum
%
Delta-T
°C
Wind Press
QNH
hPa
Press
MSL
hPa
Rain
since 9 am
mm
Dir
 
Spd
km/h
Gust
km/h
Spd
kts
Gust
kts
28/10:32am 23.7 24.7 19.4 77 2.8 ENE 13 19 7 10 1006.6 1004.6 0.0
28/10:30am 23.7 24.5 19.0 75 3.0 ENE 13 19 7 10 1006.6 1004.6 0.0
28/10:00am 22.9 24.1 19.1 79 2.4 ENE 11 17 6 9 1006.6 1004.6 0.0
28/09:30am 22.0 22.7 18.8 82 2.0 ENE 13 17 7 9 1006.9 1004.8 0.0
28/09:00am 21.9 22.6 18.9 83 1.9 NE 13 17 7 9 1006.7 1004.7 13.4
28/08:30am 21.8 22.5 18.8 83 1.9 ENE 13 20 7 11 1006.4 1004.4 13.4
28/08:00am 21.5 22.1 18.7 84 1.8 ENE 13 20 7 11 1006.3 1004.3 13.4
28/07:30am 21.3 22.3 18.7 85 1.7 ENE 11 15 6 8 1006.0 1003.9 13.4
28/07:00am 21.1 21.4 18.7 86 1.5 ENE 15 20 8 11 1005.2 1003.1 13.4
28/06:53am 21.0 21.3 18.8 87 1.4 ENE 15 19 8 10 1005.1 1003.0 13.4
28/06:46am 20.9 20.8 18.8 88 1.3 ENE 17 24 9 13 1005.1 1003.0 13.4
28/06:30am 21.0 21.8 19.1 89 1.2 ENE 13 17 7 9 1005.1 1003.0 13.4
28/06:00am 20.9 22.6 19.4 91 1.0 NE 9 15 5 8 1004.7 1002.6 13.4
28/05:30am 20.5 22.7 19.3 93 0.8 E 6 9 3 5 1004.4 1002.3 13.4
28/05:10am 20.0 22.3 18.5 91 0.9 SE 4 6 2 3 1004.3 1002.2 13.2
28/05:00am 19.9 21.7 18.4 91 0.9 SE 6 7 3 4 1004.1 1002.0 13.2
28/04:56am 19.9 21.7 18.4 91 0.9 SE 6 7 3 4 1004.0 1001.9 13.2
28/04:30am 20.3 22.7 18.8 91 1.0 E 4 7 2 4 1004.0 1001.9 13.2
28/04:00am 20.1 21.8 18.6 91 1.0 ESE 7 11 4 6 1004.1 1002.0 13.2
28/03:30am 19.9 20.8 18.4 91 0.9 ESE 11 17 6 9 1004.2 1002.1 13.2
28/03:00am 19.7 19.8 18.4 92 0.8 ESE 15 20 8 11 1004.2 1002.1 13.2
28/02:30am 19.6 18.9 18.3 92 0.8 ESE 19 26 10 14 1004.2 1002.1 13.2
28/02:00am 19.6 18.0 18.3 92 0.8 ESE 24 33 13 18 1004.3 1002.2 13.0
28/01:30am 19.9 17.7 18.6 92 0.8 SE 28 35 15 19 1004.9 1002.8 12.2
28/01:00am 20.2 19.3 19.0 93 0.8 SE 22 35 12 19 1005.1 1003.0 12.2
28/12:54am 20.2 18.8 18.9 92 0.8 ESE 24 35 13 19 1005.0 1002.9 12.2
28/12:49am 20.2 18.8 18.9 92 0.8 ESE 24 33 13 18 1005.1 1003.0 12.2
28/12:30am 20.3 18.7 19.1 93 0.8 SE 26 35 14 19 1005.4 1003.3 11.8
28/12:23am 20.3 19.0 19.1 93 0.8 SE 24 32 13 17 1005.6 1003.5 11.8
28/12:01am 20.4 19.5 19.1 92 0.8 ESE 22 28 12 15 1006.0 1003.9 10.0
28/12:00am 20.4 19.5 19.1 92 0.8 ESE 22 28 12 15 1006.0 1003.9 9.8
 
Date/Time
EST
Temp
°C
App
Temp
°C
Dew
Point
Rel
Hum
%
Delta-T
°C
Wind Press
QNH
hPa
Press
MSL
hPa
Rain
since 9 am
mm
Dir
 
Spd
km/h
Gust
km/h
Spd
kts
Gust
kts
27/11:33pm 20.5 20.1 19.3 93 0.8 SE 20 26 11 14 1006.4 1004.4 8.0
27/11:30pm 20.5 20.1 19.3 93 0.8 SE 20 26 11 14 1006.4 1004.4 7.8
27/11:21pm 20.5 20.0 19.2 92 0.8 SE 20 28 11 15 1006.5 1004.5 7.4
27/11:13pm 20.4 19.9 19.1 92 0.8 SE 20 28 11 15 1006.5 1004.5 6.6
27/11:06pm 20.5 19.6 19.0 91 1.0 SE 22 32 12 17 1006.4 1004.4 5.8
27/11:00pm 20.5 20.0 19.0 91 1.0 SE 20 30 11 16 1006.3 1004.3 5.6
27/10:59pm 20.6 20.1 19.1 91 1.0 SE 20 32 11 17 1006.3 1004.3 5.6
27/10:53pm 20.7 19.9 19.2 91 1.0 SE 22 32 12 17 1006.4 1004.4 5.2
27/10:35pm 21.2 20.1 19.5 90 1.1 SE 24 35 13 19 1006.2 1004.1 4.0
27/10:30pm 21.6 21.8 20.2 92 0.9 SE 19 30 10 16 1006.1 1004.0 3.8
27/10:09pm 21.7 22.7 20.2 91 1.0 S 15 20 8 11 1006.5 1004.5 2.0
27/10:00pm 21.7 21.5 19.8 89 1.2 S 20 28 11 15 1006.4 1004.4 1.0
27/09:32pm 22.4 21.6 19.2 82 2.1 S 22 30 12 16 1006.0 1003.9 0.0
27/09:30pm 22.3 21.4 19.1 82 2.1 S 22 30 12 16 1006.0 1003.9 0.0
27/09:00pm 21.7 23.2 18.9 84 1.8 E 9 13 5 7 1005.0 1002.9 0.0
27/08:30pm 21.8 21.8 19.0 84 1.8 ENE 17 22 9 12 1004.6 1002.5 0.0
27/08:00pm 21.9 22.3 18.9 83 1.9 ENE 15 20 8 11 1004.2 1002.1 0.0
27/07:30pm 22.0 22.3 19.7 87 1.5 E 17 24 9 13 1004.4 1002.3 0.0
27/07:00pm 23.0 22.2 18.5 76 2.9 SE 20 30 11 16 1004.4 1002.3 0.0
27/06:30pm 24.4 23.1 19.0 72 3.5 SE 24 39 13 21 1003.7 1001.6 0.0
27/06:04pm 24.6 21.4 18.1 67 4.1 SSE 32 52 17 28 1003.1 1001.0 0.0
27/06:00pm 25.3 24.1 17.0 60 5.2 SSE 19 52 10 28 1003.0 1000.9 0.0
27/05:57pm 27.3 27.9 16.9 53 6.6 ESE 9 52 5 28 1002.9 1000.8 0.0
27/05:30pm 30.9 33.4 21.1 56 6.6 N 9 13 5 7 1002.3 1000.2 0.0
27/05:00pm 29.9 31.5 19.9 55 6.7 N 11 15 6 8 1002.2 1000.1 0.0
27/04:30pm 30.0 29.8 19.4 53 7.0 N 19 24 10 13 1002.0 999.9 0.0
27/04:00pm 31.1 32.4 21.6 57 6.5 NNE 17 22 9 12 1001.7 999.6 0.0
27/03:30pm 29.6 29.5 19.6 55 6.6 N 19 26 10 14 1002.3 1000.2 0.0
27/03:00pm 29.9 29.8 19.9 55 6.7 NE 20 32 11 17 1002.3 1000.2 0.0
27/02:30pm 30.7 30.3 19.4 51 7.5 NNE 20 32 11 17 1002.2 1000.1 0.0
27/02:00pm 30.1 30.5 20.6 56 6.4 NNE 19 26 10 14 1003.0 1000.9 0.0
27/01:30pm 29.3 29.5 20.5 59 5.9 NE 20 30 11 16 1003.9 1001.8 0.0
27/01:00pm 28.8 28.6 20.5 61 5.6 NE 22 28 12 15 1004.7 1002.6 0.0
27/12:30pm 28.5 28.3 20.5 62 5.3 NNE 22 30 12 16 1005.2 1003.1 0.0
27/12:00pm 28.1 28.3 20.1 62 5.3 NNE 19 24 10 13 1005.5 1003.4 0.0
27/11:30am 28.4 28.7 20.4 62 5.3 NNE 19 26 10 14 1006.0 1003.9 0.0
27/11:00am 27.6 27.7 20.4 65 4.8 NE 20 28 11 15 1006.4 1004.4 0.0
27/10:30am 27.0 25.7 19.9 65 4.7 NNE 26 33 14 18 1007.1 1005.0 0.0
27/10:00am 27.7 26.5 20.0 63 5.1 NNE 26 35 14 19 1007.3 1005.2 0.0
27/09:30am 27.6 25.2 19.9 63 5.1 NNE 32 43 17 23 1007.3 1005.2 0.0
27/09:00am 27.3 25.1 19.6 62 5.1 NE 30 43 16 23 1007.2 1005.1 0.0
27/08:30am 26.6 24.8 19.5 65 4.6 NNE 28 41 15 22 1007.1 1005.0 0.0
27/08:00am 26.4 24.3 19.8 67 4.3 NE 30 41 16 22 1006.9 1004.8 0.0
27/07:30am 25.8 24.9 19.9 70 3.9 NE 24 30 13 16 1006.5 1004.5 0.0
27/07:00am 24.6 23.9 19.4 73 3.4 NE 22 28 12 15 1006.3 1004.3 0.0
27/06:30am 24.2 24.1 19.9 77 2.8 ENE 20 26 11 14 1006.0 1003.9 0.0
27/06:00am 23.2 24.4 19.8 81 2.2 ENE 13 17 7 9 1006.0 1003.9 0.0
27/05:30am 23.2 24.0 19.8 81 2.2 ENE 15 20 8 11 1005.9 1003.8 0.0
27/05:00am 23.0 24.4 19.6 81 2.2 ENE 11 15 6 8 1005.6 1003.5 0.0
27/04:30am 23.4 24.8 19.5 79 2.5 ENE 11 15 6 8 1005.5 1003.4 0.0
27/04:00am 23.5 24.8 19.4 78 2.7 ENE 11 17 6 9 1005.4 1003.3 0.0
27/03:30am 23.7 23.3 18.8 74 3.1 ENE 19 26 10 14 1005.2 1003.1 0.0
27/03:00am 24.4 24.0 18.8 71 3.6 ENE 19 32 10 17 1005.6 1003.5 0.0
27/02:30am 24.1 23.9 18.5 71 3.6 ENE 17 24 9 13 1005.3 1003.2 0.0
27/02:00am 24.3 23.7 18.9 72 3.5 ENE 20 28 11 15 1005.3 1003.2 0.0
27/01:30am 24.5 23.5 19.6 74 3.2 ENE 24 43 13 23 1005.1 1003.0 0.0
27/01:00am 24.7 24.4 19.5 73 3.4 ENE 20 28 11 15 1005.3 1003.2 0.0
27/12:30am 25.0 24.1 19.1 70 3.8 ENE 22 32 12 17 1005.8 1003.7 0.0
27/12:00am 25.4 23.5 19.3 69 4.0 ENE 28 41 15 22 1005.8 1003.7 0.0
 
Date/Time
EST
Temp
°C
App
Temp
°C
Dew
Point
Rel
Hum
%
Delta-T
°C
Wind Press
QNH
hPa
Press
MSL
hPa
Rain
since 9 am
mm
Dir
 
Spd
km/h
Gust
km/h
Spd
kts
Gust
kts
26/11:30pm 25.2 24.4 19.3 70 3.8 NE 22 32 12 17 1006.0 1003.9 0.0
26/11:00pm 25.4 23.4 19.1 68 4.1 NE 28 44 15 24 1006.3 1004.3 0.0
26/10:58pm 25.6 23.7 19.3 68 4.1 NE 28 46 15 25 1006.3 1004.3 0.0
26/10:30pm 26.3 23.6 19.2 65 4.6 ENE 32 48 17 26 1005.2 1003.1 0.0
26/10:00pm 26.3 24.4 19.4 66 4.5 ENE 28 43 15 23 1005.5 1003.4 0.0
26/09:30pm 26.8 25.3 18.6 60 5.3 E 24 35 13 19 1005.6 1003.5 0.0
26/09:12pm 27.0 24.4 17.8 57 5.9 E 28 46 15 25 1005.4 1003.3 0.0
26/09:00pm 27.6 24.5 17.5 54 6.5 E 30 46 16 25 1005.6 1003.5 0.0
26/08:59pm 27.6 24.9 17.5 54 6.4 E 28 46 15 25 1005.6 1003.5 0.0
26/08:30pm 27.7 27.8 18.4 57 6.0 ESE 15 20 8 11 1005.0 1002.9 0.0
26/08:00pm 27.9 27.2 18.3 56 6.2 ESE 19 26 10 14 1004.6 1002.5 0.0
26/07:30pm 29.5 27.2 17.7 49 7.6 ESE 26 35 14 19 1004.2 1002.1 0.0
26/07:00pm 32.0 29.3 16.7 40 9.8 SE 26 41 14 22 1003.7 1001.6 0.0
26/06:56pm 32.6 28.9 16.0 36 10.5 SSE 30 48 16 26 1003.7 1001.6 0.0
26/06:49pm 32.2 31.9 16.5 39 10.0 W 13 48 7 26 1003.6 1001.5 0.0
26/06:47pm 31.6 32.4 16.3 39 9.7 NW 7 41 4 22 1003.5 1001.4 0.0
26/06:30pm 32.1 31.5 14.7 35 10.8 NNW 11 13 6 7 1002.9 1000.8 0.0
26/06:00pm 33.4 31.2 14.5 32 11.8 NW 19 26 10 14 1002.6 1000.5 0.0
26/05:30pm 34.7 33.1 15.1 31 12.4 N 17 20 9 11 1002.3 1000.2 0.0
26/05:00pm 35.9 34.5 14.5 27 13.5 N 15 19 8 10 1002.2 1000.1 0.0
26/04:30pm 37.3 36.2 15.2 27 14.1 N 15 24 8 13 1002.1 1000.0 0.0
26/04:00pm 37.9 37.3 14.5 25 14.8 N 11 19 6 10 1001.9 999.8 0.0
26/03:30pm 38.4 37.5 14.9 25 14.9 NW 13 20 7 11 1002.4 1000.3 0.0
26/03:00pm 37.6 36.7 13.6 24 15.0 N 11 17 6 9 1002.7 1000.6 0.0
26/02:30pm 37.5 36.9 14.7 25 14.4 NNW 11 20 6 11 1003.2 1001.1 0.0
26/02:00pm 37.6 38.1 16.5 28 13.7 NW 9 17 5 9 1003.6 1001.5 0.0
26/01:30pm 37.3 37.3 17.3 30 13.1 NW 13 22 7 12 1004.3 1002.2 0.0
26/01:00pm 36.8 37.6 17.4 32 12.7 WNW 9 20 5 11 1004.7 1002.6 0.0
26/12:30pm 35.9 36.2 16.1 30 12.7 SW 9 15 5 8 1005.2 1003.1 0.0
26/12:00pm 35.6 36.0 16.4 32 12.4 NNW 9 15 5 8 1005.6 1003.5 0.0
26/11:30am 35.3 34.9 16.1 32 12.3 WNW 13 20 7 11 1006.0 1003.9 0.0
26/11:00am 34.4 35.1 18.0 37 10.8 NW 11 17 6 9 1006.2 1004.1 0.0
26/10:30am 33.9 35.2 19.2 42 9.8 WNW 11 17 6 9 1006.6 1004.6 0.0
26/10:00am 32.6 33.7 18.8 44 9.1 NW 11 15 6 8 1006.6 1004.6 0.0
26/09:30am 30.3 32.3 20.8 56 6.4 NW 11 15 6 8 1007.0 1004.9 0.0
26/09:00am 26.4 29.1 20.3 69 4.0 N 6 7 3 4 1007.1 1005.0 0.0
26/08:30am 26.7 28.4 20.1 67 4.4 N 11 17 6 9 1007.2 1005.1 0.0
26/08:00am 25.1 26.6 19.7 72 3.5 N 11 15 6 8 1007.2 1005.1 0.0
26/07:30am 25.1 25.4 19.7 72 3.5 N 17 22 9 12 1007.1 1005.0 0.0
26/07:00am 26.0 25.9 19.6 68 4.2 N 19 24 10 13 1007.0 1004.9 0.0
26/06:30am 24.3 24.6 19.6 75 3.1 NNE 17 20 9 11 1006.9 1004.8 0.0
26/06:00am 24.3 24.0 19.6 75 3.1 N 20 26 11 14 1006.5 1004.5 0.0
26/05:30am 24.2 24.5 19.7 76 2.9 N 17 22 9 12 1006.2 1004.1 0.0
26/05:00am 24.5 25.6 19.6 74 3.2 NNE 13 19 7 10 1005.9 1003.8 0.0
26/04:30am 24.8 25.4 19.4 72 3.5 NNE 15 20 8 11 1005.7 1003.6 0.0
26/04:00am 25.2 24.8 19.3 70 3.8 NNE 20 30 11 16 1005.4 1003.3 0.0
26/03:30am 25.1 24.6 19.2 70 3.8 NNE 20 30 11 16 1005.4 1003.3 0.0
26/03:00am 24.9 24.9 19.7 73 3.4 NNE 19 24 10 13 1005.4 1003.3 0.0
26/02:30am 24.6 25.3 19.7 74 3.2 N 15 19 8 10 1005.1 1003.0 0.0
26/02:00am 24.2 24.6 19.9 77 2.8 N 17 22 9 12 1005.3 1003.2 0.0
26/01:30am 23.8 24.8 19.5 77 2.8 N 13 17 7 9 1005.3 1003.2 0.0
26/01:00am 23.8 25.7 19.7 78 2.7 N 9 13 5 7 1005.6 1003.5 0.0
26/12:30am 23.3 24.8 19.0 77 2.8 NNE 9 11 5 6 1005.9 1003.8 0.0
26/12:00am 23.8 26.0 19.1 75 3.0 NNE 6 7 3 4 1005.7 1003.6 0.0
 
Date/Time
EST
Temp
°C
App
Temp
°C
Dew
Point
Rel
Hum
%
Delta-T
°C
Wind Press
QNH
hPa
Press
MSL
hPa
Rain
since 9 am
mm
Dir
 
Spd
km/h
Gust
km/h
Spd
kts
Gust
kts
25/11:30pm 24.9 26.4 19.0 69 3.8 NNE 9 11 5 6 1005.8 1003.7 0.0
25/11:00pm 25.5 27.1 19.2 68 4.1 NE 9 11 5 6 1006.2 1004.1 0.0
25/10:30pm 25.6 26.8 19.0 67 4.3 N 11 13 6 7 1006.0 1003.9 0.0
25/10:00pm 26.3 27.6 19.2 65 4.6 N 11 13 6 7 1005.9 1003.8 0.0
25/09:30pm 27.2 28.1 19.3 62 5.2 NNE 13 17 7 9 1005.7 1003.6 0.0
25/09:00pm 27.7 29.1 19.5 61 5.4 NNE 11 15 6 8 1005.2 1003.1 0.0
25/08:30pm 27.1 28.4 19.4 62 5.0 NW 11 15 6 8 1004.8 1002.7 0.0
25/08:00pm 27.5 29.3 19.6 62 5.2 NNW 9 9 5 5 1004.5 1002.4 0.0
25/07:30pm 28.5 30.6 19.4 57 6.0 NNW 7 9 4 5 1004.5 1002.4 0.0
25/07:00pm 30.6 32.5 19.0 50 7.6 NNW 7 11 4 6 1004.3 1002.2 0.0
25/06:30pm 32.6 34.3 18.4 43 9.3 N 7 9 4 5 1004.0 1001.9 0.0
25/06:00pm 34.1 35.0 16.5 35 11.3 WNW 7 11 4 6 1003.8 1001.7 0.0
25/05:30pm 35.0 34.5 15.8 31 12.2 NW 13 20 7 11 1003.7 1001.6 0.0
25/05:00pm 34.3 34.9 15.7 32 11.8 NNW 7 13 4 7 1003.3 1001.2 0.0
25/04:30pm 37.1 37.4 16.1 29 13.5 W 9 13 5 7 1003.2 1001.1 0.0
25/04:00pm 36.0 36.0 14.1 27 13.7 S 7 13 4 7 1003.5 1001.4 0.0
25/03:30pm 36.1 34.8 13.6 26 13.9 W 13 17 7 9 1003.8 1001.7 0.0
25/03:00pm 35.6 33.2 15.3 29 12.9 W 22 30 12 16 1004.1 1002.0 0.0
25/02:30pm 35.3 34.9 16.1 32 12.3 W 13 19 7 10 1004.4 1002.3 0.0
25/02:00pm 37.1 36.6 15.0 27 14.1 SW 11 19 6 10 1004.5 1002.4 0.0
25/01:30pm 36.6 35.6 14.6 27 13.9 WSW 13 20 7 11 1004.8 1002.7 0.0
25/01:00pm 36.8 35.3 15.3 28 13.7 WNW 17 28 9 15 1005.1 1003.0 0.0
25/12:30pm 36.1 37.5 18.7 36 11.6 WNW 9 19 5 10 1005.5 1003.4 0.0
25/12:00pm 34.8 35.1 17.1 35 11.5 WSW 11 24 6 13 1005.8 1003.7 0.0
25/11:30am 34.9 35.6 18.0 36 11.1 W 11 20 6 11 1006.3 1004.3 0.0

Other Formats:

Comma delimited format used in spreadsheet applications
http://www.bom.gov.au/fwo/IDQ60801/IDQ60801.94515.axf

JavaScript Object Notation format (JSON) in row-major order
http://www.bom.gov.au/fwo/IDQ60801/IDQ60801.94515.json